AirNav   ProFlight Series 2 Aviation Headset
 
 1033 users online  

23CO High Mesa Airport
Rush, Colorado, USA

GOING TO RUSH?


FAA INFORMATION EFFECTIVE 16 JULY 2020

Location

FAA Identifier: 23CO
Lat/Long: 38-50-37.9000N 103-59-23.8000W
38-50.631667N 103-59.396667W
38.8438611,-103.9899444
(estimated)
Elevation: 6000 ft. / 1829 m (estimated)
Variation: 10E (1995)
From city: 5 miles E of RUSH, CO
Time zone: UTC -6 (UTC -7 during Standard Time)
Zip code: 80833

Airport Operations

Airport use: Private use. Permission required prior to landing
Activation date: 03/2000
Control tower: no
ARTCC: DENVER CENTER
FSS: DENVER FLIGHT SERVICE STATION
Attendance: UNATNDD
Wind indicator: yes
Segmented circle: no

Airport Communications

WX ASOS at CO90 (15 nm W): 125.0 (719-637-9696)

Nearby radio navigation aids

VOR radial/distance  VOR name  Freq  Var
HGOr268/17.3HUGO VOR/DME112.1007E
BRKr093/30.7BLACK FOREST VOR/DME112.5008E
FCSr063/37.2BUTTS VOR/DME108.8012E
PUBr024/38.9PUEBLO VORTAC116.7008E

 
NDB name  Hdg/Dist  Freq  Var  ID
IRONHORSE066/37.133508EIHS .. .... ...

Airport Services

Runway Information

Runway 15/33

Dimensions: 4000 x 40 ft. / 1219 x 12 m
Surface: gravel
RUNWAY 15  RUNWAY 33
Traffic pattern: leftright
Obstructions: 70 ft. pline, marked, 500 ft. from runway50 ft. pline, marked, 780 ft. from runway

Airport Ownership and Management from official FAA records

Ownership: Privately-owned
Owner: HIGH MESA FARM LLC
4011 STATE ROAD 94
RUSH, CO 80833
Phone 719-478-3080
Manager: DONALD V. JOHNS JR
4011 STATE ROAD 94
RUSH, CO 80833
Phone 719-339-9755

Airport Operational Statistics

Aircraft based on the field: 2
Single engine airplanes: 2
    

Additional Remarks

FOR CD CTC DENVER ARTCC AT 303-651-4257.

Instrument Procedures

There are no published instrument procedures at 23CO.

Some nearby airports with instrument procedures:

KCOS - City of Colorado Springs Municipal Airport (33 nm W)
KPUB - Pueblo Memorial Airport (41 nm SW)
KLHX - La Junta Municipal Airport (53 nm SE)
1V6 - Fremont County Airport (58 nm SW)
KAPA - Centennial Airport (59 nm NW)
 
Loc | Ops | Rwys | IFR | FBO | Links
Com | Nav | Svcs | Stats | Notes

AirBoss

 
Area around 23CO (High Mesa Airport)
 
Road maps at: MapQuest Bing Google
 
Aerial photo
No photo
 
Sectional chart

 
Airport distance calculator
Flying to High Mesa Airport? Find the distance to fly.

From to 23CO

Sunrise and sunset
Times for 09-Aug-2020
 Local
(UTC-6)
 Zulu
(UTC)
Morning civil twilight05:3711:37
Sunrise06:0612:06
Sunset19:5601:56
Evening civil twilight20:2502:25

Current date and time
Zulu (UTC)  09-Aug-2020 14:06:09
Local (UTC-6)  09-Aug-2020 08:06:09
 
METAR
KABH 
15nm W 
091258Z AUTO 33003KT 10SM SCT150 20/03 A3019 RMK AO2 SLP135 T02000032
KFLY 
28nm W 
091355Z AUTO 32006KT 10SM CLR 24/M04 A3027 RMK AO2 T02401037
KLIC 
30nm NE 
091355Z AUTO 31007KT 10SM CLR 20/07 A3013 RMK AO2 SLP122 T02000072
TAF
KCOS 
34nm W 
091121Z 0912/1012 35006KT P6SM SCT150 FM091500 36010KT P6SM SCT150 FM091900 16008KT P6SM SCT150 FM100200 34007KT P6SM SCT150
KFCS 
38nm W 
090500Z 0905/1011 34009KT 9999 SKC QNH3010INS BECMG 0919/0920 29009KT 9999 SCT120 QNH3007INS TEMPO 0920/1001 25015G25KT VCTS SCT120CB BECMG 1003/1004 VRB06KT 9999 SCT100 QNH3011INS TX33/0921Z TN13/0912Z
KPUB 
41nm SW 
091121Z 0912/1012 09008KT P6SM SCT150 FM091400 28008KT P6SM FEW150 FM092000 13010KT P6SM SCT150 FM100300 33007KT P6SM FEW150
NOTAMs
Click for the latest NOTAMs
NOTAMs are issued by the DoD/FAA and will open in a separate window not controlled by AirNav.

 

 
 

Would you like to see your business listed on this page?

 If your business provides an interesting product or service to pilots, flight crews, aircraft, or users of the High Mesa Airport, you should consider listing it here.  To start the listing process, click on the button below
 
Add a business
 

Other Pages about High Mesa Airport

Update a link
 
Copyright © AirNav, LLC. All rights reserved. Privacy Policy  Contact